sensor_id;sensor_type;location;lat;lon;timestamp;P1;durP1;ratioP1;P2;durP2;ratioP2
13040;SDS011;6587;42.728;23.288;2022-07-23T00:00:31;11.53;;;6.97;;
13040;SDS011;6587;42.728;23.288;2022-07-23T00:02:59;9.77;;;7.33;;
13040;SDS011;6587;42.728;23.288;2022-07-23T00:05:26;11.87;;;7.40;;
13040;SDS011;6587;42.728;23.288;2022-07-23T00:07:53;9.83;;;7.23;;
13040;SDS011;6587;42.728;23.288;2022-07-23T00:10:20;10.13;;;6.83;;
13040;SDS011;6587;42.728;23.288;2022-07-23T00:12:47;12.43;;;7.77;;
13040;SDS011;6587;42.728;23.288;2022-07-23T00:15:13;11.60;;;7.73;;
13040;SDS011;6587;42.728;23.288;2022-07-23T00:17:40;9.67;;;7.67;;
13040;SDS011;6587;42.728;23.288;2022-07-23T00:20:09;10.13;;;7.23;;
13040;SDS011;6587;42.728;23.288;2022-07-23T00:22:37;11.13;;;7.60;;
13040;SDS011;6587;42.728;23.288;2022-07-23T00:25:12;10.70;;;7.37;;
13040;SDS011;6587;42.728;23.288;2022-07-23T00:27:39;11.80;;;7.70;;
13040;SDS011;6587;42.728;23.288;2022-07-23T00:30:06;12.23;;;8.30;;
13040;SDS011;6587;42.728;23.288;2022-07-23T00:32:44;11.73;;;7.73;;
13040;SDS011;6587;42.728;23.288;2022-07-23T00:35:13;8.07;;;6.77;;
13040;SDS011;6587;42.728;23.288;2022-07-23T00:37:40;9.97;;;7.10;;
13040;SDS011;6587;42.728;23.288;2022-07-23T00:40:08;9.80;;;7.30;;
13040;SDS011;6587;42.728;23.288;2022-07-23T00:42:36;10.10;;;7.47;;
13040;SDS011;6587;42.728;23.288;2022-07-23T00:45:03;9.47;;;7.33;;
13040;SDS011;6587;42.728;23.288;2022-07-23T00:47:31;11.07;;;7.30;;
13040;SDS011;6587;42.728;23.288;2022-07-23T00:49:58;8.30;;;6.83;;
13040;SDS011;6587;42.728;23.288;2022-07-23T00:52:26;10.40;;;7.27;;
13040;SDS011;6587;42.728;23.288;2022-07-23T00:54:55;10.67;;;7.67;;
13040;SDS011;6587;42.728;23.288;2022-07-23T00:57:22;9.73;;;7.47;;
13040;SDS011;6587;42.728;23.288;2022-07-23T00:59:49;12.73;;;7.70;;
13040;SDS011;6587;42.728;23.288;2022-07-23T01:02:16;11.57;;;7.60;;
13040;SDS011;6587;42.728;23.288;2022-07-23T01:04:43;9.03;;;7.27;;
13040;SDS011;6587;42.728;23.288;2022-07-23T01:07:11;9.43;;;7.40;;
13040;SDS011;6587;42.728;23.288;2022-07-23T01:09:40;11.07;;;7.20;;
13040;SDS011;6587;42.728;23.288;2022-07-23T01:12:07;10.27;;;7.40;;
13040;SDS011;6587;42.728;23.288;2022-07-23T01:14:34;10.50;;;7.13;;
13040;SDS011;6587;42.728;23.288;2022-07-23T01:17:01;9.87;;;7.00;;
13040;SDS011;6587;42.728;23.288;2022-07-23T01:19:28;11.43;;;7.40;;
13040;SDS011;6587;42.728;23.288;2022-07-23T01:21:56;14.67;;;8.00;;
13040;SDS011;6587;42.728;23.288;2022-07-23T01:24:25;10.80;;;6.60;;
13040;SDS011;6587;42.728;23.288;2022-07-23T01:27:10;9.67;;;7.30;;
13040;SDS011;6587;42.728;23.288;2022-07-23T01:29:39;11.97;;;7.87;;
13040;SDS011;6587;42.728;23.288;2022-07-23T01:32:12;11.27;;;7.70;;
13040;SDS011;6587;42.728;23.288;2022-07-23T01:34:39;12.13;;;8.13;;
13040;SDS011;6587;42.728;23.288;2022-07-23T01:37:06;14.40;;;7.97;;
13040;SDS011;6587;42.728;23.288;2022-07-23T01:39:35;10.10;;;7.70;;
13040;SDS011;6587;42.728;23.288;2022-07-23T01:42:02;10.90;;;7.70;;
13040;SDS011;6587;42.728;23.288;2022-07-23T01:44:30;11.80;;;7.23;;
13040;SDS011;6587;42.728;23.288;2022-07-23T01:46:57;10.90;;;7.83;;
13040;SDS011;6587;42.728;23.288;2022-07-23T01:49:24;11.47;;;8.37;;
13040;SDS011;6587;42.728;23.288;2022-07-23T01:51:57;11.50;;;8.13;;
13040;SDS011;6587;42.728;23.288;2022-07-23T01:54:34;13.73;;;8.13;;
13040;SDS011;6587;42.728;23.288;2022-07-23T01:57:05;12.07;;;7.73;;
13040;SDS011;6587;42.728;23.288;2022-07-23T01:59:32;11.73;;;7.60;;
13040;SDS011;6587;42.728;23.288;2022-07-23T02:02:00;9.13;;;7.10;;
13040;SDS011;6587;42.728;23.288;2022-07-23T02:04:30;16.70;;;8.07;;
13040;SDS011;6587;42.728;23.288;2022-07-23T02:06:59;10.43;;;7.90;;
13040;SDS011;6587;42.728;23.288;2022-07-23T02:09:26;13.43;;;9.83;;
13040;SDS011;6587;42.728;23.288;2022-07-23T02:11:54;13.80;;;9.17;;
13040;SDS011;6587;42.728;23.288;2022-07-23T02:14:22;13.00;;;9.50;;
13040;SDS011;6587;42.728;23.288;2022-07-23T02:16:48;13.47;;;9.57;;
13040;SDS011;6587;42.728;23.288;2022-07-23T02:19:15;13.50;;;9.30;;
13040;SDS011;6587;42.728;23.288;2022-07-23T02:21:42;13.47;;;9.13;;
13040;SDS011;6587;42.728;23.288;2022-07-23T02:24:09;15.43;;;9.37;;
13040;SDS011;6587;42.728;23.288;2022-07-23T02:26:39;17.10;;;9.13;;
13040;SDS011;6587;42.728;23.288;2022-07-23T02:29:09;16.77;;;9.80;;
13040;SDS011;6587;42.728;23.288;2022-07-23T02:31:36;15.13;;;9.63;;
13040;SDS011;6587;42.728;23.288;2022-07-23T02:34:04;10.70;;;9.60;;
13040;SDS011;6587;42.728;23.288;2022-07-23T02:36:31;14.23;;;9.17;;
13040;SDS011;6587;42.728;23.288;2022-07-23T02:38:58;12.13;;;9.37;;
13040;SDS011;6587;42.728;23.288;2022-07-23T02:41:28;11.93;;;9.23;;
13040;SDS011;6587;42.728;23.288;2022-07-23T02:43:55;15.37;;;8.93;;
13040;SDS011;6587;42.728;23.288;2022-07-23T02:46:24;14.83;;;8.77;;
13040;SDS011;6587;42.728;23.288;2022-07-23T02:48:51;13.50;;;9.10;;
13040;SDS011;6587;42.728;23.288;2022-07-23T02:51:18;13.77;;;9.77;;
13040;SDS011;6587;42.728;23.288;2022-07-23T02:53:52;15.80;;;9.70;;
13040;SDS011;6587;42.728;23.288;2022-07-23T02:56:20;14.40;;;9.97;;
13040;SDS011;6587;42.728;23.288;2022-07-23T02:58:47;14.93;;;9.50;;
13040;SDS011;6587;42.728;23.288;2022-07-23T03:01:14;14.87;;;9.47;;
13040;SDS011;6587;42.728;23.288;2022-07-23T03:03:42;12.27;;;9.37;;
13040;SDS011;6587;42.728;23.288;2022-07-23T03:06:09;14.03;;;9.33;;
13040;SDS011;6587;42.728;23.288;2022-07-23T03:08:38;12.50;;;9.50;;
13040;SDS011;6587;42.728;23.288;2022-07-23T03:11:04;13.87;;;8.73;;
13040;SDS011;6587;42.728;23.288;2022-07-23T03:13:36;14.20;;;9.33;;
13040;SDS011;6587;42.728;23.288;2022-07-23T03:16:04;11.17;;;9.00;;
13040;SDS011;6587;42.728;23.288;2022-07-23T03:18:31;15.37;;;9.27;;
13040;SDS011;6587;42.728;23.288;2022-07-23T03:20:59;15.27;;;9.00;;
13040;SDS011;6587;42.728;23.288;2022-07-23T03:23:27;11.67;;;8.67;;
13040;SDS011;6587;42.728;23.288;2022-07-23T03:25:53;12.87;;;8.80;;
13040;SDS011;6587;42.728;23.288;2022-07-23T03:28:21;10.83;;;8.93;;
13040;SDS011;6587;42.728;23.288;2022-07-23T03:30:48;17.37;;;8.83;;
13040;SDS011;6587;42.728;23.288;2022-07-23T03:33:15;12.37;;;8.83;;
13040;SDS011;6587;42.728;23.288;2022-07-23T03:35:44;14.93;;;9.13;;
13040;SDS011;6587;42.728;23.288;2022-07-23T03:38:33;15.83;;;8.70;;
13040;SDS011;6587;42.728;23.288;2022-07-23T03:41:00;13.47;;;9.03;;
13040;SDS011;6587;42.728;23.288;2022-07-23T03:43:27;12.73;;;8.87;;
13040;SDS011;6587;42.728;23.288;2022-07-23T03:45:54;11.40;;;8.97;;
13040;SDS011;6587;42.728;23.288;2022-07-23T03:48:21;12.03;;;8.10;;
13040;SDS011;6587;42.728;23.288;2022-07-23T03:50:49;12.90;;;8.90;;
13040;SDS011;6587;42.728;23.288;2022-07-23T03:53:16;14.33;;;9.77;;
13040;SDS011;6587;42.728;23.288;2022-07-23T03:55:44;12.60;;;8.93;;
13040;SDS011;6587;42.728;23.288;2022-07-23T03:58:11;14.90;;;9.20;;
13040;SDS011;6587;42.728;23.288;2022-07-23T04:00:38;12.20;;;9.27;;
13040;SDS011;6587;42.728;23.288;2022-07-23T04:03:05;11.87;;;8.83;;
13040;SDS011;6587;42.728;23.288;2022-07-23T04:05:32;12.43;;;9.73;;
13040;SDS011;6587;42.728;23.288;2022-07-23T04:08:10;14.43;;;9.33;;
13040;SDS011;6587;42.728;23.288;2022-07-23T04:10:40;13.67;;;9.27;;
13040;SDS011;6587;42.728;23.288;2022-07-23T04:13:09;12.67;;;9.10;;
13040;SDS011;6587;42.728;23.288;2022-07-23T04:15:36;16.97;;;9.20;;
13040;SDS011;6587;42.728;23.288;2022-07-23T04:18:04;10.20;;;8.17;;
13040;SDS011;6587;42.728;23.288;2022-07-23T04:20:43;13.43;;;9.03;;
13040;SDS011;6587;42.728;23.288;2022-07-23T04:23:11;14.33;;;9.47;;
13040;SDS011;6587;42.728;23.288;2022-07-23T04:25:39;11.30;;;9.23;;
13040;SDS011;6587;42.728;23.288;2022-07-23T04:28:06;14.27;;;9.60;;
13040;SDS011;6587;42.728;23.288;2022-07-23T04:30:35;15.77;;;9.37;;
13040;SDS011;6587;42.728;23.288;2022-07-23T04:33:06;38.20;;;11.67;;
13040;SDS011;6587;42.728;23.288;2022-07-23T04:35:36;16.87;;;8.43;;
13040;SDS011;6587;42.728;23.288;2022-07-23T04:38:13;16.77;;;9.07;;
13040;SDS011;6587;42.728;23.288;2022-07-23T04:40:41;19.83;;;9.13;;
13040;SDS011;6587;42.728;23.288;2022-07-23T04:43:09;16.07;;;9.57;;
13040;SDS011;6587;42.728;23.288;2022-07-23T04:45:43;13.47;;;9.17;;
13040;SDS011;6587;42.728;23.288;2022-07-23T04:48:10;12.77;;;9.20;;
13040;SDS011;6587;42.728;23.288;2022-07-23T04:50:38;11.23;;;9.00;;
13040;SDS011;6587;42.728;23.288;2022-07-23T04:53:13;12.87;;;9.10;;
13040;SDS011;6587;42.728;23.288;2022-07-23T04:55:41;11.87;;;8.90;;
13040;SDS011;6587;42.728;23.288;2022-07-23T04:58:11;13.13;;;9.20;;
13040;SDS011;6587;42.728;23.288;2022-07-23T05:00:38;10.13;;;8.07;;
13040;SDS011;6587;42.728;23.288;2022-07-23T05:03:05;11.73;;;8.30;;
13040;SDS011;6587;42.728;23.288;2022-07-23T05:05:32;10.40;;;8.30;;
13040;SDS011;6587;42.728;23.288;2022-07-23T05:08:07;12.20;;;9.13;;
13040;SDS011;6587;42.728;23.288;2022-07-23T05:10:37;10.93;;;8.57;;
13040;SDS011;6587;42.728;23.288;2022-07-23T05:13:04;13.43;;;8.87;;
13040;SDS011;6587;42.728;23.288;2022-07-23T05:15:32;12.03;;;8.00;;
13040;SDS011;6587;42.728;23.288;2022-07-23T05:18:00;13.43;;;8.63;;
13040;SDS011;6587;42.728;23.288;2022-07-23T05:20:27;10.43;;;8.30;;
13040;SDS011;6587;42.728;23.288;2022-07-23T05:22:54;10.43;;;8.60;;
13040;SDS011;6587;42.728;23.288;2022-07-23T05:25:22;17.80;;;8.97;;
13040;SDS011;6587;42.728;23.288;2022-07-23T05:27:49;12.67;;;8.97;;
13040;SDS011;6587;42.728;23.288;2022-07-23T05:30:16;15.67;;;9.53;;
13040;SDS011;6587;42.728;23.288;2022-07-23T05:32:46;12.83;;;9.53;;
13040;SDS011;6587;42.728;23.288;2022-07-23T05:35:16;16.10;;;9.73;;
13040;SDS011;6587;42.728;23.288;2022-07-23T05:38:00;13.93;;;8.93;;
13040;SDS011;6587;42.728;23.288;2022-07-23T05:40:27;12.57;;;8.90;;
13040;SDS011;6587;42.728;23.288;2022-07-23T05:42:55;14.77;;;9.13;;
13040;SDS011;6587;42.728;23.288;2022-07-23T05:45:22;13.93;;;10.30;;
13040;SDS011;6587;42.728;23.288;2022-07-23T05:47:52;13.03;;;9.13;;
13040;SDS011;6587;42.728;23.288;2022-07-23T05:50:26;12.00;;;9.30;;
13040;SDS011;6587;42.728;23.288;2022-07-23T05:53:01;14.50;;;9.80;;
13040;SDS011;6587;42.728;23.288;2022-07-23T05:55:41;10.97;;;9.73;;
13040;SDS011;6587;42.728;23.288;2022-07-23T05:58:08;15.53;;;9.73;;
13040;SDS011;6587;42.728;23.288;2022-07-23T06:00:36;11.97;;;8.87;;
13040;SDS011;6587;42.728;23.288;2022-07-23T06:03:04;15.90;;;9.50;;
13040;SDS011;6587;42.728;23.288;2022-07-23T06:05:31;15.63;;;9.80;;
13040;SDS011;6587;42.728;23.288;2022-07-23T06:07:59;15.00;;;10.43;;
13040;SDS011;6587;42.728;23.288;2022-07-23T06:10:28;16.00;;;10.00;;
13040;SDS011;6587;42.728;23.288;2022-07-23T06:12:56;15.60;;;9.90;;
13040;SDS011;6587;42.728;23.288;2022-07-23T06:15:23;15.63;;;10.05;;
13040;SDS011;6587;42.728;23.288;2022-07-23T06:17:50;15.20;;;10.60;;
13040;SDS011;6587;42.728;23.288;2022-07-23T06:20:18;13.37;;;9.47;;
13040;SDS011;6587;42.728;23.288;2022-07-23T06:22:45;19.73;;;11.10;;
13040;SDS011;6587;42.728;23.288;2022-07-23T06:25:12;17.55;;;9.90;;
13040;SDS011;6587;42.728;23.288;2022-07-23T06:27:41;15.52;;;10.02;;
13040;SDS011;6587;42.728;23.288;2022-07-23T06:30:11;15.05;;;10.32;;
13040;SDS011;6587;42.728;23.288;2022-07-23T06:32:41;14.98;;;9.40;;
13040;SDS011;6587;42.728;23.288;2022-07-23T06:35:08;13.18;;;8.90;;
13040;SDS011;6587;42.728;23.288;2022-07-23T06:37:36;13.30;;;9.85;;
13040;SDS011;6587;42.728;23.288;2022-07-23T06:40:03;12.48;;;9.23;;
13040;SDS011;6587;42.728;23.288;2022-07-23T06:42:35;14.40;;;9.40;;
13040;SDS011;6587;42.728;23.288;2022-07-23T06:45:05;16.52;;;10.05;;
13040;SDS011;6587;42.728;23.288;2022-07-23T06:47:34;19.58;;;10.70;;
13040;SDS011;6587;42.728;23.288;2022-07-23T06:50:02;18.25;;;11.68;;
13040;SDS011;6587;42.728;23.288;2022-07-23T06:52:29;18.17;;;11.48;;
13040;SDS011;6587;42.728;23.288;2022-07-23T06:54:57;17.80;;;11.90;;
13040;SDS011;6587;42.728;23.288;2022-07-23T06:57:24;16.13;;;11.30;;
13040;SDS011;6587;42.728;23.288;2022-07-23T06:59:51;18.85;;;11.20;;
13040;SDS011;6587;42.728;23.288;2022-07-23T07:02:18;19.45;;;10.18;;
13040;SDS011;6587;42.728;23.288;2022-07-23T07:04:46;17.90;;;10.43;;
13040;SDS011;6587;42.728;23.288;2022-07-23T07:07:15;17.40;;;10.23;;
13040;SDS011;6587;42.728;23.288;2022-07-23T07:09:41;17.38;;;9.73;;
13040;SDS011;6587;42.728;23.288;2022-07-23T07:12:10;18.33;;;11.45;;
13040;SDS011;6587;42.728;23.288;2022-07-23T07:14:38;17.23;;;10.18;;
13040;SDS011;6587;42.728;23.288;2022-07-23T07:17:04;20.98;;;11.07;;
13040;SDS011;6587;42.728;23.288;2022-07-23T07:19:31;13.82;;;9.93;;
13040;SDS011;6587;42.728;23.288;2022-07-23T07:21:58;16.80;;;10.57;;
13040;SDS011;6587;42.728;23.288;2022-07-23T07:24:25;18.85;;;10.70;;
13040;SDS011;6587;42.728;23.288;2022-07-23T07:26:52;18.70;;;10.73;;
13040;SDS011;6587;42.728;23.288;2022-07-23T07:29:20;22.50;;;11.05;;
13040;SDS011;6587;42.728;23.288;2022-07-23T07:31:48;17.67;;;10.48;;
13040;SDS011;6587;42.728;23.288;2022-07-23T07:34:15;19.50;;;10.93;;
13040;SDS011;6587;42.728;23.288;2022-07-23T07:36:41;19.45;;;9.90;;
13040;SDS011;6587;42.728;23.288;2022-07-23T07:39:08;19.50;;;10.10;;
13040;SDS011;6587;42.728;23.288;2022-07-23T07:41:35;15.23;;;9.95;;
13040;SDS011;6587;42.728;23.288;2022-07-23T07:44:02;16.48;;;9.50;;
13040;SDS011;6587;42.728;23.288;2022-07-23T07:46:31;15.68;;;10.93;;
13040;SDS011;6587;42.728;23.288;2022-07-23T07:48:58;21.05;;;10.40;;
13040;SDS011;6587;42.728;23.288;2022-07-23T07:51:25;18.13;;;10.13;;
13040;SDS011;6587;42.728;23.288;2022-07-23T07:53:52;17.95;;;9.70;;
13040;SDS011;6587;42.728;23.288;2022-07-23T07:56:19;15.63;;;9.00;;
13040;SDS011;6587;42.728;23.288;2022-07-23T07:58:46;14.27;;;9.73;;
13040;SDS011;6587;42.728;23.288;2022-07-23T08:01:12;17.75;;;9.57;;
13040;SDS011;6587;42.728;23.288;2022-07-23T08:03:41;16.08;;;9.52;;
13040;SDS011;6587;42.728;23.288;2022-07-23T08:06:07;16.25;;;8.80;;
13040;SDS011;6587;42.728;23.288;2022-07-23T08:08:34;16.50;;;8.40;;
13040;SDS011;6587;42.728;23.288;2022-07-23T08:11:01;14.63;;;9.05;;
13040;SDS011;6587;42.728;23.288;2022-07-23T08:13:28;14.40;;;9.18;;
13040;SDS011;6587;42.728;23.288;2022-07-23T08:15:55;13.70;;;9.48;;
13040;SDS011;6587;42.728;23.288;2022-07-23T08:18:22;17.02;;;9.45;;
13040;SDS011;6587;42.728;23.288;2022-07-23T08:20:50;13.73;;;9.80;;
13040;SDS011;6587;42.728;23.288;2022-07-23T08:23:17;15.85;;;9.43;;
13040;SDS011;6587;42.728;23.288;2022-07-23T08:25:45;16.75;;;8.65;;
13040;SDS011;6587;42.728;23.288;2022-07-23T08:28:13;16.13;;;9.48;;
13040;SDS011;6587;42.728;23.288;2022-07-23T08:30:41;14.52;;;8.30;;
13040;SDS011;6587;42.728;23.288;2022-07-23T08:33:10;13.82;;;8.80;;
13040;SDS011;6587;42.728;23.288;2022-07-23T08:35:38;12.45;;;8.50;;
13040;SDS011;6587;42.728;23.288;2022-07-23T08:38:08;12.52;;;8.68;;
13040;SDS011;6587;42.728;23.288;2022-07-23T08:40:37;13.50;;;8.15;;
13040;SDS011;6587;42.728;23.288;2022-07-23T08:43:05;14.52;;;8.60;;
13040;SDS011;6587;42.728;23.288;2022-07-23T08:45:36;11.43;;;8.02;;
13040;SDS011;6587;42.728;23.288;2022-07-23T08:48:04;14.05;;;8.55;;
13040;SDS011;6587;42.728;23.288;2022-07-23T08:50:34;16.27;;;8.13;;
13040;SDS011;6587;42.728;23.288;2022-07-23T08:53:02;15.65;;;9.05;;
13040;SDS011;6587;42.728;23.288;2022-07-23T08:55:33;15.82;;;8.68;;
13040;SDS011;6587;42.728;23.288;2022-07-23T08:58:01;16.25;;;8.65;;
13040;SDS011;6587;42.728;23.288;2022-07-23T09:00:28;15.13;;;8.70;;
13040;SDS011;6587;42.728;23.288;2022-07-23T09:02:56;17.95;;;8.68;;
13040;SDS011;6587;42.728;23.288;2022-07-23T09:05:23;19.02;;;8.90;;
13040;SDS011;6587;42.728;23.288;2022-07-23T09:08:10;16.65;;;8.52;;
13040;SDS011;6587;42.728;23.288;2022-07-23T09:10:46;15.00;;;8.30;;
13040;SDS011;6587;42.728;23.288;2022-07-23T09:13:25;18.10;;;9.23;;
13040;SDS011;6587;42.728;23.288;2022-07-23T09:16:00;18.48;;;8.88;;
13040;SDS011;6587;42.728;23.288;2022-07-23T09:18:29;13.55;;;8.50;;
13040;SDS011;6587;42.728;23.288;2022-07-23T09:21:07;14.70;;;8.07;;
13040;SDS011;6587;42.728;23.288;2022-07-23T09:23:38;15.85;;;8.50;;
13040;SDS011;6587;42.728;23.288;2022-07-23T09:29:09;15.25;;;9.10;;
13040;SDS011;6587;42.728;23.288;2022-07-23T09:31:44;14.98;;;9.02;;
13040;SDS011;6587;42.728;23.288;2022-07-23T09:34:14;11.27;;;8.13;;
13040;SDS011;6587;42.728;23.288;2022-07-23T09:36:43;14.60;;;8.50;;
13040;SDS011;6587;42.728;23.288;2022-07-23T09:39:10;13.45;;;8.65;;
13040;SDS011;6587;42.728;23.288;2022-07-23T09:41:41;12.43;;;8.25;;
13040;SDS011;6587;42.728;23.288;2022-07-23T09:44:11;18.90;;;11.30;;
13040;SDS011;6587;42.728;23.288;2022-07-23T09:46:39;16.60;;;8.55;;
13040;SDS011;6587;42.728;23.288;2022-07-23T09:49:10;11.32;;;7.38;;
13040;SDS011;6587;42.728;23.288;2022-07-23T09:51:45;15.43;;;7.80;;
13040;SDS011;6587;42.728;23.288;2022-07-23T09:54:20;12.30;;;7.38;;
13040;SDS011;6587;42.728;23.288;2022-07-23T09:56:54;12.00;;;6.80;;
13040;SDS011;6587;42.728;23.288;2022-07-23T09:59:22;18.02;;;7.18;;
13040;SDS011;6587;42.728;23.288;2022-07-23T10:01:51;13.88;;;7.00;;
13040;SDS011;6587;42.728;23.288;2022-07-23T10:04:20;12.10;;;7.40;;
13040;SDS011;6587;42.728;23.288;2022-07-23T10:06:54;9.55;;;6.38;;
13040;SDS011;6587;42.728;23.288;2022-07-23T10:09:41;11.35;;;7.03;;
13040;SDS011;6587;42.728;23.288;2022-07-23T10:12:27;10.43;;;6.47;;
13040;SDS011;6587;42.728;23.288;2022-07-23T10:15:09;10.23;;;6.65;;
13040;SDS011;6587;42.728;23.288;2022-07-23T10:17:36;10.60;;;6.15;;
13040;SDS011;6587;42.728;23.288;2022-07-23T10:20:03;13.95;;;6.88;;
13040;SDS011;6587;42.728;23.288;2022-07-23T10:22:33;10.50;;;6.25;;
13040;SDS011;6587;42.728;23.288;2022-07-23T10:25:05;8.57;;;6.50;;
13040;SDS011;6587;42.728;23.288;2022-07-23T10:27:51;12.68;;;6.80;;
13040;SDS011;6587;42.728;23.288;2022-07-23T10:30:28;11.65;;;6.95;;
13040;SDS011;6587;42.728;23.288;2022-07-23T10:33:09;13.25;;;7.50;;
13040;SDS011;6587;42.728;23.288;2022-07-23T10:35:53;9.93;;;6.43;;
13040;SDS011;6587;42.728;23.288;2022-07-23T10:38:30;8.38;;;6.20;;
13040;SDS011;6587;42.728;23.288;2022-07-23T10:41:00;9.48;;;6.90;;
13040;SDS011;6587;42.728;23.288;2022-07-23T10:43:29;12.60;;;6.93;;
13040;SDS011;6587;42.728;23.288;2022-07-23T10:46:20;12.23;;;6.30;;
13040;SDS011;6587;42.728;23.288;2022-07-23T10:49:03;13.25;;;6.30;;
13040;SDS011;6587;42.728;23.288;2022-07-23T10:54:47;10.57;;;6.38;;
13040;SDS011;6587;42.728;23.288;2022-07-23T10:57:16;14.02;;;6.30;;
13040;SDS011;6587;42.728;23.288;2022-07-23T11:02:38;11.48;;;5.80;;
13040;SDS011;6587;42.728;23.288;2022-07-23T11:05:08;16.38;;;6.18;;
13040;SDS011;6587;42.728;23.288;2022-07-23T11:07:36;12.27;;;5.50;;
13040;SDS011;6587;42.728;23.288;2022-07-23T11:10:32;11.93;;;5.45;;
13040;SDS011;6587;42.728;23.288;2022-07-23T11:16:07;8.77;;;5.72;;
13040;SDS011;6587;42.728;23.288;2022-07-23T11:18:55;11.27;;;5.75;;
13040;SDS011;6587;42.728;23.288;2022-07-23T11:21:51;16.15;;;5.93;;
13040;SDS011;6587;42.728;23.288;2022-07-23T11:24:19;13.50;;;5.68;;
13040;SDS011;6587;42.728;23.288;2022-07-23T11:26:57;14.65;;;5.50;;
13040;SDS011;6587;42.728;23.288;2022-07-23T11:29:42;11.25;;;5.22;;
13040;SDS011;6587;42.728;23.288;2022-07-23T11:35:21;9.48;;;5.82;;
13040;SDS011;6587;42.728;23.288;2022-07-23T11:37:49;9.82;;;5.90;;
13040;SDS011;6587;42.728;23.288;2022-07-23T11:40:19;11.05;;;6.50;;
13040;SDS011;6587;42.728;23.288;2022-07-23T11:42:51;9.95;;;5.95;;
13040;SDS011;6587;42.728;23.288;2022-07-23T11:45:19;16.13;;;5.57;;
13040;SDS011;6587;42.728;23.288;2022-07-23T11:47:48;11.40;;;6.13;;
13040;SDS011;6587;42.728;23.288;2022-07-23T11:50:15;11.77;;;5.65;;
13040;SDS011;6587;42.728;23.288;2022-07-23T11:52:42;12.60;;;5.60;;
13040;SDS011;6587;42.728;23.288;2022-07-23T11:55:09;13.75;;;5.60;;
13040;SDS011;6587;42.728;23.288;2022-07-23T11:57:41;11.65;;;5.63;;
13040;SDS011;6587;42.728;23.288;2022-07-23T12:00:10;14.82;;;5.70;;
13040;SDS011;6587;42.728;23.288;2022-07-23T12:02:39;12.82;;;5.55;;
13040;SDS011;6587;42.728;23.288;2022-07-23T12:05:09;15.40;;;6.32;;
13040;SDS011;6587;42.728;23.288;2022-07-23T12:07:39;17.45;;;5.82;;
13040;SDS011;6587;42.728;23.288;2022-07-23T12:10:13;13.93;;;5.25;;
13040;SDS011;6587;42.728;23.288;2022-07-23T12:12:42;15.02;;;6.07;;
13040;SDS011;6587;42.728;23.288;2022-07-23T12:15:10;13.88;;;5.70;;
13040;SDS011;6587;42.728;23.288;2022-07-23T12:17:39;14.77;;;6.10;;
13040;SDS011;6587;42.728;23.288;2022-07-23T12:20:12;16.95;;;6.35;;
13040;SDS011;6587;42.728;23.288;2022-07-23T12:22:40;15.70;;;5.55;;
13040;SDS011;6587;42.728;23.288;2022-07-23T12:25:10;14.27;;;6.03;;
13040;SDS011;6587;42.728;23.288;2022-07-23T12:27:38;11.50;;;6.07;;
13040;SDS011;6587;42.728;23.288;2022-07-23T12:30:15;15.32;;;6.13;;
13040;SDS011;6587;42.728;23.288;2022-07-23T12:32:50;15.95;;;5.82;;
13040;SDS011;6587;42.728;23.288;2022-07-23T12:35:21;19.27;;;6.63;;
13040;SDS011;6587;42.728;23.288;2022-07-23T12:37:49;15.23;;;6.57;;
13040;SDS011;6587;42.728;23.288;2022-07-23T12:40:24;12.10;;;6.15;;
13040;SDS011;6587;42.728;23.288;2022-07-23T12:42:54;16.40;;;6.53;;
13040;SDS011;6587;42.728;23.288;2022-07-23T12:45:22;16.08;;;6.95;;
13040;SDS011;6587;42.728;23.288;2022-07-23T12:47:50;19.00;;;6.80;;
13040;SDS011;6587;42.728;23.288;2022-07-23T12:50:33;14.80;;;6.30;;
13040;SDS011;6587;42.728;23.288;2022-07-23T12:53:05;15.38;;;6.22;;
13040;SDS011;6587;42.728;23.288;2022-07-23T12:55:33;15.85;;;5.97;;
13040;SDS011;6587;42.728;23.288;2022-07-23T12:58:04;15.65;;;5.82;;
13040;SDS011;6587;42.728;23.288;2022-07-23T13:00:34;14.57;;;6.18;;
13040;SDS011;6587;42.728;23.288;2022-07-23T13:03:25;13.55;;;6.05;;
13040;SDS011;6587;42.728;23.288;2022-07-23T13:05:54;12.85;;;5.53;;
13040;SDS011;6587;42.728;23.288;2022-07-23T13:08:22;14.95;;;5.70;;
13040;SDS011;6587;42.728;23.288;2022-07-23T13:10:49;14.27;;;5.50;;
13040;SDS011;6587;42.728;23.288;2022-07-23T13:13:19;12.02;;;5.45;;
13040;SDS011;6587;42.728;23.288;2022-07-23T13:15:47;15.07;;;5.40;;
13040;SDS011;6587;42.728;23.288;2022-07-23T13:18:14;16.80;;;5.38;;
13040;SDS011;6587;42.728;23.288;2022-07-23T13:20:42;11.38;;;5.30;;
13040;SDS011;6587;42.728;23.288;2022-07-23T13:23:11;13.88;;;5.55;;
13040;SDS011;6587;42.728;23.288;2022-07-23T13:25:38;11.55;;;5.18;;
13040;SDS011;6587;42.728;23.288;2022-07-23T13:28:05;12.25;;;5.38;;
13040;SDS011;6587;42.728;23.288;2022-07-23T13:30:32;11.43;;;4.80;;
13040;SDS011;6587;42.728;23.288;2022-07-23T13:33:00;13.73;;;5.85;;
13040;SDS011;6587;42.728;23.288;2022-07-23T13:35:27;16.00;;;5.55;;
13040;SDS011;6587;42.728;23.288;2022-07-23T13:37:54;12.82;;;5.00;;
13040;SDS011;6587;42.728;23.288;2022-07-23T13:40:22;9.57;;;4.80;;
13040;SDS011;6587;42.728;23.288;2022-07-23T13:42:49;17.23;;;5.38;;
13040;SDS011;6587;42.728;23.288;2022-07-23T13:45:16;11.65;;;4.70;;
13040;SDS011;6587;42.728;23.288;2022-07-23T13:47:43;12.02;;;5.03;;
13040;SDS011;6587;42.728;23.288;2022-07-23T13:50:10;10.13;;;5.32;;
13040;SDS011;6587;42.728;23.288;2022-07-23T13:52:37;9.15;;;5.53;;
13040;SDS011;6587;42.728;23.288;2022-07-23T13:55:05;10.32;;;5.10;;
13040;SDS011;6587;42.728;23.288;2022-07-23T13:57:34;13.85;;;5.13;;
13040;SDS011;6587;42.728;23.288;2022-07-23T14:00:01;8.30;;;5.43;;
13040;SDS011;6587;42.728;23.288;2022-07-23T14:02:29;12.88;;;5.57;;
13040;SDS011;6587;42.728;23.288;2022-07-23T14:04:56;8.82;;;4.85;;
13040;SDS011;6587;42.728;23.288;2022-07-23T14:07:23;15.10;;;5.22;;
13040;SDS011;6587;42.728;23.288;2022-07-23T14:09:50;13.57;;;5.07;;
13040;SDS011;6587;42.728;23.288;2022-07-23T14:12:17;14.75;;;5.55;;
13040;SDS011;6587;42.728;23.288;2022-07-23T14:14:45;10.13;;;5.30;;
13040;SDS011;6587;42.728;23.288;2022-07-23T14:17:12;9.98;;;4.93;;
13040;SDS011;6587;42.728;23.288;2022-07-23T14:19:39;11.90;;;5.18;;
13040;SDS011;6587;42.728;23.288;2022-07-23T14:22:06;12.23;;;5.10;;
13040;SDS011;6587;42.728;23.288;2022-07-23T14:24:33;10.32;;;4.72;;
13040;SDS011;6587;42.728;23.288;2022-07-23T14:27:00;12.77;;;5.13;;
13040;SDS011;6587;42.728;23.288;2022-07-23T14:29:27;10.13;;;5.25;;
13040;SDS011;6587;42.728;23.288;2022-07-23T14:31:56;12.77;;;4.97;;
13040;SDS011;6587;42.728;23.288;2022-07-23T14:34:23;9.50;;;5.10;;
13040;SDS011;6587;42.728;23.288;2022-07-23T14:36:50;12.82;;;5.45;;
13040;SDS011;6587;42.728;23.288;2022-07-23T14:39:17;14.68;;;5.30;;
13040;SDS011;6587;42.728;23.288;2022-07-23T14:41:44;9.55;;;5.05;;
13040;SDS011;6587;42.728;23.288;2022-07-23T14:44:11;10.82;;;5.18;;
13040;SDS011;6587;42.728;23.288;2022-07-23T14:46:38;10.40;;;5.07;;
13040;SDS011;6587;42.728;23.288;2022-07-23T14:49:06;13.15;;;5.15;;
13040;SDS011;6587;42.728;23.288;2022-07-23T14:51:33;10.70;;;5.15;;
13040;SDS011;6587;42.728;23.288;2022-07-23T14:54:01;10.88;;;5.07;;
13040;SDS011;6587;42.728;23.288;2022-07-23T14:56:29;24.50;;;11.63;;
13040;SDS011;6587;42.728;23.288;2022-07-23T14:58:57;17.08;;;6.47;;
13040;SDS011;6587;42.728;23.288;2022-07-23T15:01:24;12.90;;;5.50;;